Time;durP1;ratioP1;P1;durP2;ratioP2;P2;SDS_P1;SDS_P2;PMS_P1;PMS_P2;Temp;Humidity;BMP_temperature;BMP_pressure;BME280_temperature;BME280_humidity;BME280_pressure;Samples;Min_cycle;Max_cycle;Signal;HPM_P1;HPM_P2
2021/04/20 00:02:02;;;;;;;;;;;;;;;7.48;97.50;99240.75;4895924;29;19930;-92
2021/04/20 00:04:29;;;;;;;;;;;;;;;7.61;97.08;99241.41;4918482;29;19933;-90
2021/04/20 00:06:55;;;;;;;;;;;;;;;7.29;98.29;99243.59;4903755;29;20386;-92
2021/04/20 00:09:20;;;;;;;;;;;;;;;7.23;98.91;99240.25;4902504;29;19923;-91
2021/04/20 00:11:45;;;;;;;;;;;;;;;7.20;100.00;99242.88;4905406;29;20383;-90
2021/04/20 00:14:11;;;;;;;;;;;;;;;7.36;99.49;99241.78;4902824;29;20013;-91
2021/04/20 00:16:37;;;;;;;;;;;;;;;7.63;98.51;99232.81;4901012;29;19978;-92
2021/04/20 00:19:03;;;;;;;;;;;;;;;7.68;99.12;99236.16;4904369;29;20499;-91
2021/04/20 00:21:29;;;;;;;;;;;;;;;7.87;97.79;99231.56;4902085;29;19926;-91
2021/04/20 00:24:00;;;;;;;;;;;;;;;7.78;96.94;99231.72;4903554;29;19922;-91
2021/04/20 00:26:26;;;;;;;;;;;;;;;7.73;97.43;99228.38;4902427;29;19922;-92
2021/04/20 00:28:51;;;;;;;;;;;;;;;7.54;98.51;99232.97;4900441;29;19923;-90
2021/04/20 00:31:16;;;;;;;;;;;;;;;7.32;100.00;99227.31;4901978;29;19966;-91
2021/04/20 00:33:41;;;;;;;;;;;;;;;7.73;99.58;99225.81;4903072;29;19946;-91
2021/04/20 00:36:07;;;;;;;;;;;;;;;7.74;98.77;99227.53;4918585;29;20013;-91
2021/04/20 00:38:33;;;;;;;;;;;;;;;7.82;98.81;99223.09;4900048;29;19966;-91
2021/04/20 00:41:02;;;;;;;;;;;;;;;7.76;98.80;99220.66;4916249;29;20635;-90
2021/04/20 00:43:38;;;;;;;;;;;;;;;7.99;97.84;99219.41;4905647;29;19927;-92
2021/04/20 00:46:11;;;;;;;;;;;;;;;8.14;96.90;99219.97;4899870;29;20613;-91
2021/04/20 00:48:36;;;;;;;;;;;;;;;7.89;98.08;99214.44;4901508;29;19923;-91
2021/04/20 00:51:04;;;;;;;;;;;;;;;7.76;98.92;99218.09;4901040;29;19989;-91
2021/04/20 00:53:29;;;;;;;;;;;;;;;7.73;99.39;99210.44;4904257;29;20693;-90
2021/04/20 00:55:54;;;;;;;;;;;;;;;7.82;99.73;99215.41;4903043;29;20029;-90
2021/04/20 00:58:20;;;;;;;;;;;;;;;7.47;99.82;99206.59;4901302;29;19918;-91
2021/04/20 01:00:45;;;;;;;;;;;;;;;7.40;100.00;99207.56;4916923;29;19923;-90
2021/04/20 01:03:11;;;;;;;;;;;;;;;7.31;100.00;99210.28;4900929;29;19933;-91
2021/04/20 01:05:37;;;;;;;;;;;;;;;7.43;100.00;99209.22;4900688;29;19926;-90
2021/04/20 01:08:04;;;;;;;;;;;;;;;7.68;100.00;99205.38;4901232;29;19961;-91
2021/04/20 01:10:29;;;;;;;;;;;;;;;7.61;100.00;99202.97;4899359;29;20330;-91
2021/04/20 01:12:54;;;;;;;;;;;;;;;7.85;100.00;99199.16;4901704;29;19922;-91
2021/04/20 01:15:19;;;;;;;;;;;;;;;7.90;99.44;99202.47;4901751;29;19981;-90
2021/04/20 01:17:45;;;;;;;;;;;;;;;7.88;99.66;99205.03;4902100;29;20001;-90
2021/04/20 01:20:11;;;;;;;;;;;;;;;7.77;100.00;99208.69;4894804;29;20017;-90
2021/04/20 01:22:38;;;;;;;;;;;;;;;7.60;100.00;99206.41;4917740;29;19946;-92
2021/04/20 01:25:04;;;;;;;;;;;;;;;7.59;100.00;99194.44;4899026;29;19929;-91
2021/04/20 01:27:30;;;;;;;;;;;;;;;7.75;100.00;99201.00;4916647;29;19981;-91
2021/04/20 01:29:56;;;;;;;;;;;;;;;7.95;100.00;99198.94;4901706;29;20485;-91
2021/04/20 01:32:22;;;;;;;;;;;;;;;7.85;100.00;99201.72;4900707;29;20322;-91
2021/04/20 01:34:47;;;;;;;;;;;;;;;7.82;100.00;99205.16;4902343;29;20017;-90
2021/04/20 01:37:12;;;;;;;;;;;;;;;8.03;100.00;99197.94;4902137;29;19923;-90
2021/04/20 01:39:38;;;;;;;;;;;;;;;7.88;100.00;99199.91;4902254;29;19965;-91
2021/04/20 01:42:03;;;;;;;;;;;;;;;7.98;100.00;99198.03;4900668;29;19977;-90
2021/04/20 01:44:29;;;;;;;;;;;;;;;8.30;99.49;99194.88;4899930;29;19977;-90
2021/04/20 01:46:54;;;;;;;;;;;;;;;8.07;99.09;99197.00;4901533;29;19935;-91
2021/04/20 01:49:19;;;;;;;;;;;;;;;8.00;100.00;99195.44;4899125;29;20021;-91
2021/04/20 01:51:45;;;;;;;;;;;;;;;8.02;99.81;99194.53;4899449;29;19926;-91
2021/04/20 01:54:10;;;;;;;;;;;;;;;7.89;100.00;99188.81;4898177;29;20446;-91
2021/04/20 01:56:35;;;;;;;;;;;;;;;8.26;99.75;99195.81;4908213;29;19958;-91
2021/04/20 01:59:01;;;;;;;;;;;;;;;8.18;99.25;99189.97;4892573;29;19926;-91
2021/04/20 02:01:27;;;;;;;;;;;;;;;8.28;99.59;99193.19;4894257;29;20547;-92
2021/04/20 02:03:52;;;;;;;;;;;;;;;8.23;99.05;99195.84;4892913;29;20312;-91
2021/04/20 02:06:18;;;;;;;;;;;;;;;8.29;98.77;99193.16;4917573;29;20430;-91
2021/04/20 02:08:44;;;;;;;;;;;;;;;8.16;99.32;99196.84;4899215;29;20462;-90
2021/04/20 02:11:10;;;;;;;;;;;;;;;8.31;98.87;99196.56;4899580;29;19926;-90
2021/04/20 02:13:37;;;;;;;;;;;;;;;8.26;99.17;99197.53;4917868;29;19923;-91
2021/04/20 02:16:03;;;;;;;;;;;;;;;8.14;99.18;99196.88;4900650;29;20548;-91
2021/04/20 02:18:29;;;;;;;;;;;;;;;8.20;99.48;99193.34;4902468;29;19926;-90
2021/04/20 02:20:54;;;;;;;;;;;;;;;8.07;100.00;99197.00;4901377;29;19930;-91
2021/04/20 02:23:20;;;;;;;;;;;;;;;8.10;99.68;99196.97;4914690;29;19922;-91
2021/04/20 02:25:46;;;;;;;;;;;;;;;8.14;100.00;99196.88;4915234;29;19922;-91
2021/04/20 02:28:11;;;;;;;;;;;;;;;8.26;99.40;99193.25;4901764;29;19923;-92
2021/04/20 02:30:38;;;;;;;;;;;;;;;8.25;99.35;99193.25;4898261;29;19936;-91
2021/04/20 02:33:03;;;;;;;;;;;;;;;8.30;99.40;99189.75;4901883;29;19942;-91
2021/04/20 02:35:29;;;;;;;;;;;;;;;8.16;99.90;99187.44;4899188;29;19922;-91
2021/04/20 02:37:55;;;;;;;;;;;;;;;8.18;99.88;99182.28;4917137;29;20625;-92
2021/04/20 02:40:22;;;;;;;;;;;;;;;8.27;98.67;99186.38;4903671;29;19922;-92
2021/04/20 02:42:47;;;;;;;;;;;;;;;8.13;99.08;99186.66;4897292;29;20332;-91
2021/04/20 02:45:13;;;;;;;;;;;;;;;8.20;99.39;99195.06;4902030;29;19977;-90
2021/04/20 02:47:38;;;;;;;;;;;;;;;8.43;97.87;99190.34;4902055;29;19922;-92
2021/04/20 02:50:11;;;;;;;;;;;;;;;8.37;97.83;99183.63;4901415;29;19929;-92
2021/04/20 02:52:36;;;;;;;;;;;;;;;8.43;97.80;99189.53;4898346;29;19957;-91
2021/04/20 02:55:06;;;;;;;;;;;;;;;8.40;97.80;99175.03;4908888;29;19969;-91
2021/04/20 02:57:33;;;;;;;;;;;;;;;8.34;97.88;99183.66;4882442;29;19966;-91
2021/04/20 02:59:58;;;;;;;;;;;;;;;8.36;97.91;99176.78;4898768;29;19958;-92
2021/04/20 03:02:24;;;;;;;;;;;;;;;8.28;97.87;99175.22;4900355;29;19923;-91
2021/04/20 03:04:50;;;;;;;;;;;;;;;8.36;97.49;99171.63;4917609;29;19922;-91
2021/04/20 03:07:15;;;;;;;;;;;;;;;8.25;97.90;99172.72;4898415;29;19989;-91
2021/04/20 03:09:40;;;;;;;;;;;;;;;8.15;97.84;99174.63;4897238;29;19949;-91
2021/04/20 03:12:06;;;;;;;;;;;;;;;8.08;97.78;99167.94;4901591;29;20327;-91
2021/04/20 03:14:31;;;;;;;;;;;;;;;7.91;98.94;99171.69;4900751;29;20286;-92
2021/04/20 03:16:57;;;;;;;;;;;;;;;8.29;97.99;99166.66;4902762;29;19930;-91
2021/04/20 03:19:22;;;;;;;;;;;;;;;8.25;97.79;99168.44;4916585;29;20013;-92
2021/04/20 03:21:49;;;;;;;;;;;;;;;8.43;96.99;99174.97;4899555;29;19922;-92
2021/04/20 03:24:18;;;;;;;;;;;;;;;8.20;96.58;99177.13;4917373;29;19965;-92
2021/04/20 03:26:47;;;;;;;;;;;;;;;8.26;97.71;99177.00;4896378;29;19922;-91
2021/04/20 03:29:12;;;;;;;;;;;;;;;8.30;97.38;99173.47;4899462;29;19929;-91
2021/04/20 03:31:41;;;;;;;;;;;;;;;8.32;97.18;99174.28;4901569;29;19931;-90
2021/04/20 03:34:14;;;;;;;;;;;;;;;8.31;97.08;99172.63;4901643;29;20402;-94
2021/04/20 03:36:56;;;;;;;;;;;;;;;8.53;96.11;99170.47;4949516;29;19949;-92
2021/04/20 03:39:28;;;;;;;;;;;;;;;8.55;95.97;99173.84;4949186;23;19997;-92
2021/04/20 03:42:02;;;;;;;;;;;;;;;8.49;95.94;99171.44;4934046;29;19954;-92
2021/04/20 03:44:40;;;;;;;;;;;;;;;8.55;95.63;99164.47;4923158;29;20409;-91
2021/04/20 03:47:06;;;;;;;;;;;;;;;8.54;95.63;99161.91;4943895;29;19994;-93
2021/04/20 03:49:38;;;;;;;;;;;;;;;8.40;96.49;99166.47;4919876;29;20275;-94
2021/04/20 03:52:04;;;;;;;;;;;;;;;8.48;96.31;99167.16;4927474;29;19918;-94
2021/04/20 03:54:30;;;;;;;;;;;;;;;8.15;96.60;99167.78;4923813;29;19898;-94
2021/04/20 03:56:57;;;;;;;;;;;;;;;8.40;96.89;99163.91;4939218;29;19907;-93
2021/04/20 03:59:24;;;;;;;;;;;;;;;8.25;97.04;99165.88;4925975;28;19954;-93
2021/04/20 04:01:50;;;;;;;;;;;;;;;8.22;97.01;99160.81;4952013;29;19927;-93
2021/04/20 04:04:17;;;;;;;;;;;;;;;8.23;97.29;99162.50;4922660;29;19923;-88
2021/04/20 04:06:42;;;;;;;;;;;;;;;8.33;96.91;99166.56;4899994;29;19986;-89
2021/04/20 04:09:09;;;;;;;;;;;;;;;8.61;95.55;99163.47;4896290;29;19953;-88
2021/04/20 04:11:55;;;;;;;;;;;;;;;8.20;98.53;99172.81;4897877;29;19950;-92
2021/04/20 04:14:22;;;;;;;;;;;;;;;7.69;99.61;99170.38;4902143;29;20299;-88
2021/04/20 04:16:47;;;;;;;;;;;;;;;7.53;100.00;99170.63;4898398;29;20066;-88
2021/04/20 04:19:13;;;;;;;;;;;;;;;7.03;100.00;99168.88;4902175;29;21311;-88
2021/04/20 04:21:42;;;;;;;;;;;;;;;7.78;100.00;99169.34;4901235;29;19926;-87
2021/04/20 04:24:08;;;;;;;;;;;;;;;8.03;99.45;99170.59;4897354;29;19931;-86
2021/04/20 04:26:35;;;;;;;;;;;;;;;7.89;99.44;99173.41;4899938;29;19933;-87
2021/04/20 04:29:00;;;;;;;;;;;;;;;8.18;98.24;99179.69;4898585;29;20021;-89
2021/04/20 04:31:26;;;;;;;;;;;;;;;7.28;100.00;99177.03;4906982;29;20005;-91
2021/04/20 04:33:56;;;;;;;;;;;;;;;7.00;100.00;99189.38;4909948;29;19919;-91
2021/04/20 04:36:30;;;;;;;;;;;;;;;7.38;100.00;99176.00;4914160;29;19922;-93
2021/04/20 04:38:55;;;;;;;;;;;;;;;7.54;100.00;99177.44;4909244;29;19930;-93
2021/04/20 04:41:21;;;;;;;;;;;;;;;7.77;99.88;99183.03;4916069;29;19930;-93
2021/04/20 04:43:47;;;;;;;;;;;;;;;8.19;98.39;99181.41;4907213;29;19922;-93
2021/04/20 04:46:13;;;;;;;;;;;;;;;8.11;96.78;99178.13;4916374;29;19947;-93
2021/04/20 04:48:39;;;;;;;;;;;;;;;7.94;98.10;99181.03;4901353;29;20375;-93
2021/04/20 04:51:07;;;;;;;;;;;;;;;7.27;100.00;99178.72;4923844;29;19923;-93
2021/04/20 04:53:32;;;;;;;;;;;;;;;6.99;100.00;99180.88;4913828;29;19922;-92
2021/04/20 04:55:59;;;;;;;;;;;;;;;6.97;100.00;99176.63;4923200;29;19919;-92
2021/04/20 04:58:26;;;;;;;;;;;;;;;7.01;100.00;99176.56;4931725;29;19954;-92
2021/04/20 05:00:52;;;;;;;;;;;;;;;6.84;100.00;99178.50;4928873;29;19931;-91
2021/04/20 05:03:18;;;;;;;;;;;;;;;6.75;100.00;99174.41;4915960;29;20211;-92
2021/04/20 05:05:43;;;;;;;;;;;;;;;6.90;100.00;99179.28;4919225;29;19919;-93
2021/04/20 05:08:09;;;;;;;;;;;;;;;7.01;100.00;99181.69;4930781;29;19954;-92
2021/04/20 05:10:35;;;;;;;;;;;;;;;7.12;100.00;99179.81;4930077;29;19923;-92
2021/04/20 05:13:00;;;;;;;;;;;;;;;7.23;100.00;99186.47;4916018;29;19938;-92
2021/04/20 05:15:26;;;;;;;;;;;;;;;7.29;100.00;99188.94;4922263;29;19927;-91
2021/04/20 05:17:52;;;;;;;;;;;;;;;6.87;100.00;99193.84;4927764;29;19919;-91
2021/04/20 05:20:19;;;;;;;;;;;;;;;6.53;100.00;99189.19;4917318;29;19922;-91
2021/04/20 05:22:45;;;;;;;;;;;;;;;6.48;100.00;99193.50;4952277;29;19919;-91
2021/04/20 05:25:12;;;;;;;;;;;;;;;6.59;100.00;99191.66;4922008;29;19951;-91
2021/04/20 05:27:38;;;;;;;;;;;;;;;6.57;100.00;99185.72;4924087;29;19962;-92
2021/04/20 05:30:04;;;;;;;;;;;;;;;6.63;100.00;99180.50;4932687;29;19934;-92
2021/04/20 05:32:33;;;;;;;;;;;;;;;6.99;100.00;99183.44;4923826;29;19923;-91
2021/04/20 05:34:59;;;;;;;;;;;;;;;6.84;100.00;99183.63;4919483;29;20031;-92
2021/04/20 05:37:41;;;;;;;;;;;;;;;6.73;100.00;99181.25;4906191;29;19993;-92
2021/04/20 05:40:11;;;;;;;;;;;;;;;6.94;100.00;99180.09;4927263;29;19934;-94
2021/04/20 05:42:37;;;;;;;;;;;;;;;7.25;100.00;99179.63;4920858;29;19942;-93
2021/04/20 05:45:05;;;;;;;;;;;;;;;7.39;100.00;99175.13;4924739;29;19923;-93
2021/04/20 05:47:32;;;;;;;;;;;;;;;7.57;100.00;99175.69;4911384;29;19927;-93
2021/04/20 05:50:00;;;;;;;;;;;;;;;7.70;100.00;99174.59;4920368;29;19945;-91
2021/04/20 05:52:47;;;;;;;;;;;;;;;7.93;100.00;99169.06;4929927;29;19926;-92
2021/04/20 05:55:24;;;;;;;;;;;;;;;8.29;100.00;99171.81;4926299;29;19919;-92
2021/04/20 05:57:51;;;;;;;;;;;;;;;8.55;99.72;99174.72;4934343;29;19998;-92
2021/04/20 06:00:17;;;;;;;;;;;;;;;8.38;100.00;99167.31;4923591;29;19914;-92
2021/04/20 06:02:53;;;;;;;;;;;;;;;8.57;100.00;99172.09;4969154;23;19922;-91
2021/04/20 06:08:59;;;;;;;;;;;;;;;8.36;100.00;99176.78;4922829;28;19936;-90
2021/04/20 06:17:14;;;;;;;;;;;;;;;8.84;99.90;99177.53;2758073;23;20221;-89
2021/04/20 06:19:40;;;;;;;;;;;;;;;8.56;100.00;99180.69;4928719;29;19975;-92
2021/04/20 06:22:16;;;;;;;;;;;;;;;8.90;99.76;99177.41;4921700;29;20131;-91
2021/04/20 06:24:41;;;;;;;;;;;;;;;8.86;100.00;99179.19;4916330;29;19926;-92
2021/04/20 06:27:10;;;;;;;;;;;;;;;8.77;99.59;99180.22;4918049;29;19923;-92
2021/04/20 06:29:37;;;;;;;;;;;;;;;8.74;99.61;99185.44;4933166;29;19934;-91
2021/04/20 06:32:03;;;;;;;;;;;;;;;8.92;100.00;99175.66;4905975;29;20372;-92
2021/04/20 06:34:28;;;;;;;;;;;;;;;9.06;99.67;99180.47;4907979;29;19949;-92
2021/04/20 06:36:54;;;;;;;;;;;;;;;9.13;99.24;99177.72;4907654;29;19999;-90
2021/04/20 06:39:20;;;;;;;;;;;;;;;9.70;96.98;99183.22;4912055;29;19935;-92
2021/04/20 06:41:50;;;;;;;;;;;;;;;10.04;96.08;99173.72;4929023;29;19943;-92
2021/04/20 06:44:19;;;;;;;;;;;;;;;10.28;93.49;99181.63;4893879;29;19934;-91
2021/04/20 06:46:45;;;;;;;;;;;;;;;10.46;92.38;99175.16;4910922;29;20910;-92
2021/04/20 06:49:16;;;;;;;;;;;;;;;10.53;91.93;99171.50;4926252;29;19994;-91
2021/04/20 06:51:52;;;;;;;;;;;;;;;10.11;93.41;99178.69;4894248;29;19934;-90
2021/04/20 06:54:20;;;;;;;;;;;;;;;10.30;93.05;99182.47;4896952;29;19915;-91
2021/04/20 06:56:50;;;;;;;;;;;;;;;10.97;90.63;99176.22;4929880;29;19926;-91
2021/04/20 06:59:15;;;;;;;;;;;;;;;10.99;89.01;99174.44;4897594;29;19923;-93
2021/04/20 07:01:48;;;;;;;;;;;;;;;11.35;89.94;99179.34;4928505;29;19930;-92
2021/04/20 07:04:17;;;;;;;;;;;;;;;11.40;87.79;99174.88;4915627;29;19923;-91
2021/04/20 07:06:45;;;;;;;;;;;;;;;11.32;88.97;99176.88;4917708;29;19923;-92
2021/04/20 07:09:15;;;;;;;;;;;;;;;11.23;88.70;99171.09;4923290;23;19970;-91
2021/04/20 07:11:42;;;;;;;;;;;;;;;11.58;89.77;99171.69;4925780;29;19923;-92
2021/04/20 07:14:08;;;;;;;;;;;;;;;11.90;88.12;99174.94;4939344;29;19922;-92
2021/04/20 07:16:38;;;;;;;;;;;;;;;11.93;86.98;99161.94;4919668;29;19927;-92
2021/04/20 07:19:09;;;;;;;;;;;;;;;12.42;86.28;99167.91;4924537;29;19927;-91
2021/04/20 07:21:53;;;;;;;;;;;;;;;12.53;84.74;99173.53;4933200;29;19923;-91
2021/04/20 07:24:19;;;;;;;;;;;;;;;12.78;81.61;99167.44;4915809;29;20354;-91
2021/04/20 07:26:48;;;;;;;;;;;;;;;12.69;80.93;99171.22;4925499;29;20438;-92
2021/04/20 07:29:32;;;;;;;;;;;;;;;13.00;79.90;99171.78;4921073;29;19947;-92
2021/04/20 07:32:16;;;;;;;;;;;;;;;13.30;78.70;99167.19;4939151;29;19927;-91
2021/04/20 07:34:53;;;;;;;;;;;;;;;13.21;78.73;99163.19;4940328;29;19919;-92
2021/04/20 07:37:34;;;;;;;;;;;;;;;13.33;79.29;99169.63;4922500;29;20022;-92
2021/04/20 07:40:18;;;;;;;;;;;;;;;13.41;76.68;99165.00;4917685;29;20401;-92
2021/04/20 07:42:46;;;;;;;;;;;;;;;12.82;80.83;99157.81;4926634;29;19934;-91
2021/04/20 07:45:17;;;;;;;;;;;;;;;13.82;74.69;99167.56;4922101;29;19934;-92
2021/04/20 07:48:08;;;;;;;;;;;;;;;13.65;76.78;99167.47;4919941;29;19965;-92
2021/04/20 07:50:34;;;;;;;;;;;;;;;13.27;73.67;99162.91;4918415;29;19923;-92
2021/04/20 07:53:12;;;;;;;;;;;;;;;13.94;69.52;99161.06;4917334;29;19923;-92
2021/04/20 07:55:41;;;;;;;;;;;;;;;12.63;72.30;99171.44;4927280;29;19930;-92
2021/04/20 07:58:08;;;;;;;;;;;;;;;13.08;73.32;99165.41;4925300;29;19923;-92
2021/04/20 08:00:34;;;;;;;;;;;;;;;12.40;73.32;99169.72;4927273;29;20004;-93
2021/04/20 08:03:06;;;;;;;;;;;;;;;12.62;78.84;99168.94;4920397;29;19919;-93
2021/04/20 08:05:42;;;;;;;;;;;;;;;13.13;70.30;99162.63;4927100;29;19974;-93
2021/04/20 08:08:16;;;;;;;;;;;;;;;12.16;71.17;99176.63;4920237;29;19923;-94
2021/04/20 08:10:55;;;;;;;;;;;;;;;12.16;70.41;99170.59;4924328;29;19947;-92
2021/04/20 08:13:30;;;;;;;;;;;;;;;12.13;71.86;99169.84;4916735;29;19922;-93
2021/04/20 08:15:56;;;;;;;;;;;;;;;12.74;77.94;99168.47;4919443;29;19974;-93
2021/04/20 08:18:23;;;;;;;;;;;;;;;12.83;75.98;99167.25;4907837;29;19919;-93
2021/04/20 08:20:50;;;;;;;;;;;;;;;12.95;74.33;99165.06;4925067;29;19923;-93
2021/04/20 08:23:16;;;;;;;;;;;;;;;12.89;75.17;99160.13;4915839;29;19919;-92
2021/04/20 08:25:51;;;;;;;;;;;;;;;12.85;74.40;99168.88;4920003;29;19958;-93
2021/04/20 08:28:25;;;;;;;;;;;;;;;12.79;72.92;99156.19;4923682;29;19954;-93
2021/04/20 08:31:00;;;;;;;;;;;;;;;13.01;71.63;99155.38;4926600;29;19923;-94
2021/04/20 08:33:27;;;;;;;;;;;;;;;13.23;75.08;99158.78;4911466;29;19959;-93
2021/04/20 08:35:53;;;;;;;;;;;;;;;12.83;78.51;99162.09;4922405;29;20384;-93
2021/04/20 08:38:37;;;;;;;;;;;;;;;12.93;78.61;99153.94;4925006;29;20047;-92
2021/04/20 08:41:22;;;;;;;;;;;;;;;13.16;75.67;99149.59;4925351;29;19923;-92
2021/04/20 08:44:13;;;;;;;;;;;;;;;12.93;74.45;99153.06;4938751;29;19978;-93
2021/04/20 08:46:47;;;;;;;;;;;;;;;13.91;75.40;99149.09;4942368;29;19934;-92
2021/04/20 08:49:16;;;;;;;;;;;;;;;15.02;74.50;99149.25;4931833;29;20414;-92
2021/04/20 08:51:53;;;;;;;;;;;;;;;14.66;70.39;99147.47;4923720;29;19919;-93
2021/04/20 08:54:28;;;;;;;;;;;;;;;15.24;75.38;99149.91;4936266;29;19919;-92
2021/04/20 08:57:03;;;;;;;;;;;;;;;14.35;67.71;99153.22;4930531;29;20206;-93
2021/04/20 08:59:30;;;;;;;;;;;;;;;15.31;68.48;99145.25;4927666;29;19923;-93
2021/04/20 09:02:07;;;;;;;;;;;;;;;15.01;70.67;99152.78;4920197;29;20001;-93
2021/04/20 09:04:54;;;;;;;;;;;;;;;14.72;72.21;99148.97;4923642;29;20070;-93
2021/04/20 09:07:19;;;;;;;;;;;;;;;13.38;72.10;99150.41;4942162;29;19915;-91
2021/04/20 09:09:46;;;;;;;;;;;;;;;14.77;69.25;99153.00;4923450;29;19923;-92
2021/04/20 09:12:14;;;;;;;;;;;;;;;14.17;73.57;99150.53;4933541;29;19927;-93
2021/04/20 09:14:40;;;;;;;;;;;;;;;14.46;71.60;99143.19;4900782;29;19923;-93
2021/04/20 09:17:12;;;;;;;;;;;;;;;15.06;64.97;99146.44;4915620;29;19926;-92
2021/04/20 09:19:58;;;;;;;;;;;;;;;15.37;66.81;99144.09;4925230;29;20010;-93
2021/04/20 09:22:25;;;;;;;;;;;;;;;16.30;65.42;99147.13;4924462;29;19927;-92
2021/04/20 09:24:57;;;;;;;;;;;;;;;15.17;65.96;99147.69;4915686;29;19923;-92
2021/04/20 09:27:49;;;;;;;;;;;;;;;14.77;69.94;99145.22;4907618;29;19928;-93
2021/04/20 09:30:16;;;;;;;;;;;;;;;15.38;66.52;99141.44;4919088;29;19973;-92
2021/04/20 09:33:03;;;;;;;;;;;;;;;16.88;66.09;99137.97;4933747;29;19923;-92
2021/04/20 09:35:28;;;;;;;;;;;;;;;15.16;69.58;99146.00;4913037;29;19958;-92
2021/04/20 09:37:54;;;;;;;;;;;;;;;15.10;66.27;99143.69;4902014;29;19985;-93
2021/04/20 09:40:20;;;;;;;;;;;;;;;15.65;66.36;99139.22;4911535;29;19970;-92
2021/04/20 09:42:47;;;;;;;;;;;;;;;16.11;65.80;99146.44;4905578;29;19923;-92
2021/04/20 09:45:13;;;;;;;;;;;;;;;15.56;69.47;99141.44;4912609;29;19930;-92
2021/04/20 09:47:55;;;;;;;;;;;;;;;15.61;64.81;99142.88;4897756;29;19935;-93
2021/04/20 09:50:31;;;;;;;;;;;;;;;15.24;69.77;99143.88;4920699;29;20121;-91
2021/04/20 09:53:12;;;;;;;;;;;;;;;14.99;70.01;99145.06;4916619;29;20006;-93
2021/04/20 09:55:41;;;;;;;;;;;;;;;15.46;70.81;99135.88;4910677;29;20834;-92
2021/04/20 09:58:07;;;;;;;;;;;;;;;15.66;68.47;99140.88;4920695;29;19945;-91
2021/04/20 10:00:32;;;;;;;;;;;;;;;14.41;73.36;99142.53;4915806;29;19931;-92
2021/04/20 10:03:17;;;;;;;;;;;;;;;14.90;70.94;99135.13;4896976;29;19930;-92
2021/04/20 10:06:01;;;;;;;;;;;;;;;15.45;74.37;99132.44;4907413;29;20372;-91
2021/04/20 10:08:27;;;;;;;;;;;;;;;15.24;72.11;99136.09;4908446;29;20368;-92
2021/04/20 10:11:11;;;;;;;;;;;;;;;14.84;72.01;99130.22;4923279;29;19927;-93
2021/04/20 10:13:56;;;;;;;;;;;;;;;15.12;73.47;99140.13;4924018;29;19919;-92
2021/04/20 10:16:21;;;;;;;;;;;;;;;16.22;63.97;99135.50;4926626;29;19923;-92
2021/04/20 10:18:53;;;;;;;;;;;;;;;14.82;72.84;99139.81;4920635;29;20394;-92
2021/04/20 10:21:28;;;;;;;;;;;;;;;15.17;72.12;99132.13;4929277;29;19923;-93
2021/04/20 10:24:02;;;;;;;;;;;;;;;15.47;67.08;99132.38;4914152;29;20660;-92
2021/04/20 10:26:47;;;;;;;;;;;;;;;14.88;70.28;99126.59;4916152;29;19930;-93
2021/04/20 10:29:15;;;;;;;;;;;;;;;15.11;71.38;99132.41;4937445;29;19978;-93
2021/04/20 10:32:10;;;;;;;;;;;;;;;16.47;68.23;99129.81;4940119;29;19939;-93
2021/04/20 10:34:36;;;;;;;;;;;;;;;16.53;65.13;99124.25;4930349;29;19915;-93
2021/04/20 10:37:02;;;;;;;;;;;;;;;16.89;64.94;99126.63;4939332;29;19923;-93
2021/04/20 10:39:29;;;;;;;;;;;;;;;17.01;60.28;99122.50;4914778;29;19933;-93
2021/04/20 10:41:55;;;;;;;;;;;;;;;17.34;59.73;99119.75;4920191;29;19927;-93
2021/04/20 10:44:21;;;;;;;;;;;;;;;17.95;60.04;99119.69;4901606;29;19927;-93
2021/04/20 10:46:50;;;;;;;;;;;;;;;16.14;67.45;99115.09;4901204;29;19929;-93
2021/04/20 10:49:18;;;;;;;;;;;;;;;15.40;67.77;99118.84;4906730;23;20300;-93
2021/04/20 10:51:44;;;;;;;;;;;;;;;15.22;67.45;99118.00;4891638;29;20025;-93
2021/04/20 11:07:19;;;;;;;;;;;;;;;16.38;62.29;99101.72;4936824;29;19950;-94
2021/04/20 11:10:04;;;;;;;;;;;;;;;17.12;65.03;99098.47;4900517;29;20013;-94
2021/04/20 11:12:30;;;;;;;;;;;;;;;18.03;55.94;99098.38;4903809;29;19923;-93
2021/04/20 11:14:57;;;;;;;;;;;;;;;17.95;62.45;99094.47;4902834;29;19938;-94
2021/04/20 11:17:44;;;;;;;;;;;;;;;18.28;59.42;99097.69;4915117;29;20414;-94
2021/04/20 11:20:18;;;;;;;;;;;;;;;18.64;55.35;99086.72;4919340;29;19978;-93
2021/04/20 11:22:48;;;;;;;;;;;;;;;19.50;51.71;99091.56;4935628;29;20278;-93
2021/04/20 11:25:19;;;;;;;;;;;;;;;19.55;55.65;99092.09;4902700;29;19937;-94
2021/04/20 11:27:49;;;;;;;;;;;;;;;19.37;56.00;99090.72;4919978;29;19922;-93
2021/04/20 11:33:53;;;;;;;;;;;;;;;;;;;;;
2021/04/20 11:37:01;;;;;;;;;;;;;;;;;;;;;
2021/04/20 11:40:15;;;;;;;;;;;;;;;17.78;59.49;99073.75;4855023;29;19983;-95
2021/04/20 11:43:01;;;;;;;;;;;;;;;16.97;54.35;99074.19;4841565;29;20017;-94
2021/04/20 11:45:32;;;;;;;;;;;;;;;19.54;50.11;99066.88;4922087;29;19937;-95
2021/04/20 11:47:59;;;;;;;;;;;;;;;17.37;56.43;99066.66;4944176;29;19918;-95
2021/04/20 11:50:27;;;;;;;;;;;;;;;18.02;53.99;99075.81;4920242;29;20279;-92
2021/04/20 11:53:00;;;;;;;;;;;;;;;16.75;62.63;99065.88;4910465;29;19923;-93
2021/04/20 11:55:36;;;;;;;;;;;;;;;17.21;67.85;99071.91;4927665;29;19923;-93
2021/04/20 11:58:04;;;;;;;;;;;;;;;17.40;57.33;99071.66;4924413;29;19929;-94
2021/04/20 12:00:29;;;;;;;;;;;;;;;19.07;59.67;99060.47;4930021;29;19930;-95
2021/04/20 12:02:55;;;;;;;;;;;;;;;18.77;59.70;99058.06;4915366;29;19977;-94
2021/04/20 12:05:27;;;;;;;;;;;;;;;17.91;61.73;99066.09;4926163;29;19949;-94
2021/04/20 12:08:01;;;;;;;;;;;;;;;18.62;51.40;99056.44;4954134;29;19939;-94
2021/04/20 12:10:30;;;;;;;;;;;;;;;17.97;55.83;99055.25;4946426;29;19942;-93
2021/04/20 12:12:56;;;;;;;;;;;;;;;20.50;55.58;99049.81;4930478;29;19923;-94
2021/04/20 12:15:30;;;;;;;;;;;;;;;18.63;51.64;99053.72;4919016;29;19930;-94
2021/04/20 12:17:57;;;;;;;;;;;;;;;18.94;57.28;99051.78;4929643;29;19927;-93
2021/04/20 12:20:26;;;;;;;;;;;;;;;17.13;55.15;99059.38;4913073;29;19923;-90
2021/04/20 12:22:52;;;;;;;;;;;;;;;17.91;53.08;99061.69;4905792;23;20303;-93
2021/04/20 12:25:33;;;;;;;;;;;;;;;19.82;52.84;99049.38;4939208;29;19926;-93
2021/04/20 12:28:02;;;;;;;;;;;;;;;17.40;53.05;99055.22;4933865;29;19926;-92
2021/04/20 12:30:33;;;;;;;;;;;;;;;17.65;55.58;99054.59;4958557;29;19977;-93
2021/04/20 12:33:01;;;;;;;;;;;;;;;18.90;52.23;99055.53;4957770;28;19910;-93
2021/04/20 12:35:32;;;;;;;;;;;;;;;17.63;53.93;99049.50;4945405;29;19933;-92
2021/04/20 12:38:06;;;;;;;;;;;;;;;18.96;54.94;99052.50;4935212;29;19918;-93
2021/04/20 12:40:31;;;;;;;;;;;;;;;18.09;53.28;99048.47;4943243;28;19946;-93
2021/04/20 12:42:59;;;;;;;;;;;;;;;20.35;50.90;99046.53;4936189;29;19922;-92
2021/04/20 12:45:26;;;;;;;;;;;;;;;20.20;46.13;99040.59;4948667;29;19941;-93
2021/04/20 12:47:54;;;;;;;;;;;;;;;19.53;49.75;99048.72;4935360;29;19918;-93
2021/04/20 12:50:23;;;;;;;;;;;;;;;17.03;57.47;99046.97;4927583;28;19934;-93
2021/04/20 12:52:52;;;;;;;;;;;;;;;17.64;53.92;99040.75;4944523;29;19982;-93
2021/04/20 12:55:19;;;;;;;;;;;;;;;17.25;53.14;99038.75;4948059;29;20122;-93
2021/04/20 12:57:45;;;;;;;;;;;;;;;17.29;51.24;99037.66;4923959;29;19922;-93
2021/04/20 13:00:12;;;;;;;;;;;;;;;20.94;47.48;99016.94;4924106;29;19919;-92
2021/04/20 13:02:38;;;;;;;;;;;;;;;19.99;47.52;99017.63;4932865;29;20457;-93
2021/04/20 13:05:04;;;;;;;;;;;;;;;18.85;48.94;99027.13;4921914;29;19973;-92
2021/04/20 13:07:30;;;;;;;;;;;;;;;17.58;54.77;99016.84;4917888;29;19965;-93
2021/04/20 13:09:56;;;;;;;;;;;;;;;17.75;58.22;99019.25;4920711;29;19965;-93
2021/04/20 13:12:22;;;;;;;;;;;;;;;18.11;54.25;99012.72;4924606;29;19926;-93
2021/04/20 13:15:02;;;;;;;;;;;;;;;18.53;53.68;99010.94;4928847;29;19969;-93
2021/04/20 13:17:30;;;;;;;;;;;;;;;19.03;54.69;99009.41;4945948;29;19922;-93
2021/04/20 13:19:57;;;;;;;;;;;;;;;17.83;55.36;99005.78;4931731;29;19997;-93
2021/04/20 13:22:26;;;;;;;;;;;;;;;17.84;52.93;99013.50;4916743;29;19997;-94
2021/04/20 13:24:56;;;;;;;;;;;;;;;18.76;54.71;99005.03;4918249;28;20429;-94
2021/04/20 13:27:22;;;;;;;;;;;;;;;17.86;56.19;99006.44;4915427;28;20025;-93
2021/04/20 13:29:47;;;;;;;;;;;;;;;16.62;57.71;99006.75;4926636;29;19926;-93
2021/04/20 13:32:13;;;;;;;;;;;;;;;18.19;56.16;98993.06;4927968;29;20430;-93